Time;durP1;ratioP1;P1;durP2;ratioP2;P2;SDS_P1;SDS_P2;PMS_P1;PMS_P2;Temp;Humidity;BMP_temperature;BMP_pressure;BME280_temperature;BME280_humidity;BME280_pressure;Samples;Min_cycle;Max_cycle;Signal;HPM_P1;HPM_P2
2022/01/11 00:00:44;;;;;;;7.95;3.60;;;;;;;-142.57;100.00;61215.63;6234254;23;20005;-81
2022/01/11 00:03:14;;;;;;;9.40;3.25;;;;;;;-142.57;100.00;61215.63;6224527;23;20440;-83
2022/01/11 00:08:13;;;;;;;8.98;3.65;;;;;;;-142.57;100.00;61215.63;6215727;23;20332;-81
2022/01/11 00:10:54;;;;;;;11.27;3.50;;;;;;;-142.57;100.00;61215.63;6215644;23;20009;-82
2022/01/11 00:13:21;;;;;;;6.63;3.75;;;;;;;-142.57;100.00;61215.63;6189670;23;20000;-81
2022/01/11 00:15:47;;;;;;;7.97;3.10;;;;;;;-142.57;100.00;61215.63;6216043;23;20000;-82
2022/01/11 00:18:15;;;;;;;5.13;2.78;;;;;;;-142.57;100.00;61215.63;6216035;23;20012;-82
2022/01/11 00:20:40;;;;;;;5.15;2.90;;;;;;;-142.57;100.00;61215.63;6215914;23;20813;-82
2022/01/11 00:25:36;;;;;;;6.53;3.08;;;;;;;-142.57;100.00;61215.63;6215820;23;20009;-84
2022/01/11 00:28:03;;;;;;;5.57;3.05;;;;;;;-142.57;100.00;61215.63;6215823;23;20019;-83
2022/01/11 00:30:37;;;;;;;7.85;3.22;;;;;;;-142.57;100.00;61215.63;6189975;23;20020;-81
2022/01/11 00:33:08;;;;;;;4.78;2.85;;;;;;;-142.57;100.00;61215.63;6189183;23;20009;-82
2022/01/11 00:35:43;;;;;;;5.20;3.00;;;;;;;-142.57;100.00;61215.63;6189093;23;20071;-85
2022/01/11 00:38:15;;;;;;;5.55;2.85;;;;;;;-142.57;100.00;61215.63;6164600;23;20048;-83
2022/01/11 00:40:45;;;;;;;6.07;3.10;;;;;;;-142.57;100.00;61215.63;6188927;23;20012;-82
2022/01/11 00:43:10;;;;;;;7.05;3.33;;;;;;;-142.57;100.00;61215.63;6215790;23;20008;-85
2022/01/11 00:45:36;;;;;;;12.40;3.63;;;;;;;-142.57;100.00;61215.63;6215918;23;20008;-81
2022/01/11 00:48:01;;;;;;;6.22;3.35;;;;;;;-142.57;100.00;61215.63;6189531;23;20020;-83
2022/01/11 00:50:27;;;;;;;6.75;3.25;;;;;;;-142.57;100.00;61215.63;6188992;23;20040;-81
2022/01/11 00:52:52;;;;;;;5.88;3.08;;;;;;;-142.57;100.00;61215.63;6189140;23;20428;-82
2022/01/11 00:55:18;;;;;;;8.68;3.85;;;;;;;-142.57;100.00;61215.63;6215473;23;20066;-81
2022/01/11 00:57:45;;;;;;;8.00;3.63;;;;;;;-142.57;100.00;61215.63;6217401;23;20448;-80
2022/01/11 01:00:11;;;;;;;7.03;3.53;;;;;;;-142.57;100.00;61215.63;6218012;23;20012;-84
2022/01/11 01:02:38;;;;;;;8.32;3.45;;;;;;;-142.57;100.00;61215.63;6218703;23;20015;-84
2022/01/11 01:05:04;;;;;;;6.90;3.33;;;;;;;-142.57;100.00;61215.63;6217642;23;20008;-82
2022/01/11 01:07:30;;;;;;;6.07;3.45;;;;;;;-142.57;100.00;61215.63;6189042;23;20013;-82
2022/01/11 01:10:15;;;;;;;6.68;3.80;;;;;;;-142.57;100.00;61215.63;6215321;23;20506;-81
2022/01/11 01:12:43;;;;;;;7.63;3.53;;;;;;;-142.57;100.00;61215.63;6188905;23;20013;-81
2022/01/11 01:15:09;;;;;;;5.90;3.05;;;;;;;-142.57;100.00;61215.63;6189038;23;20026;-83
2022/01/11 01:17:36;;;;;;;5.57;3.35;;;;;;;-142.57;100.00;61215.63;6189254;23;20016;-83
2022/01/11 01:20:03;;;;;;;6.90;3.58;;;;;;;-142.57;100.00;61215.63;6217484;23;20041;-81
2022/01/11 01:22:29;;;;;;;5.45;3.40;;;;;;;-142.57;100.00;61215.63;6217466;23;20012;-80
2022/01/11 01:24:55;;;;;;;6.45;3.47;;;;;;;-142.57;100.00;61215.63;6230462;23;19997;-81
2022/01/11 01:27:20;;;;;;;6.60;3.17;;;;;;;-142.57;100.00;61215.63;6232032;23;20012;-80
2022/01/11 01:29:46;;;;;;;6.95;3.47;;;;;;;-142.57;100.00;61215.63;6218152;23;20424;-85
2022/01/11 01:32:11;;;;;;;6.63;3.40;;;;;;;-142.57;100.00;61215.63;6217170;23;20008;-81
2022/01/11 01:34:40;;;;;;;8.35;3.40;;;;;;;-142.57;100.00;61215.63;6217583;23;20012;-81
2022/01/11 01:37:08;;;;;;;6.90;3.75;;;;;;;-142.57;100.00;61215.63;6217235;23;20016;-81
2022/01/11 01:39:35;;;;;;;7.75;4.03;;;;;;;-142.57;100.00;61215.63;6217204;23;20009;-82
2022/01/11 01:42:06;;;;;;;7.50;4.20;;;;;;;-142.57;100.00;61215.63;6217677;23;20008;-82
2022/01/11 01:44:33;;;;;;;7.72;4.47;;;;;;;-142.57;100.00;61215.63;6217837;23;20036;-83
2022/01/11 01:46:59;;;;;;;10.02;4.95;;;;;;;-142.57;100.00;61215.63;6217111;23;20393;-81
2022/01/11 01:49:26;;;;;;;8.38;4.18;;;;;;;-142.57;100.00;61215.63;6190910;23;20012;-84
2022/01/11 01:51:52;;;;;;;8.05;4.07;;;;;;;-142.57;100.00;61215.63;6217508;23;20015;-81
2022/01/11 01:54:18;;;;;;;9.60;4.43;;;;;;;-142.57;100.00;61215.63;6217420;23;20059;-83
2022/01/11 01:56:45;;;;;;;10.45;4.07;;;;;;;-142.57;100.00;61215.63;6190554;23;20008;-83
2022/01/11 01:59:11;;;;;;;8.23;4.60;;;;;;;-142.57;100.00;61215.63;6190067;23;20013;-82
2022/01/11 02:01:44;;;;;;;7.95;4.40;;;;;;;-142.57;100.00;61215.63;6190388;23;20345;-81
2022/01/11 02:04:10;;;;;;;6.80;3.83;;;;;;;-142.57;100.00;61215.63;6219122;23;20004;-84
2022/01/11 02:06:36;;;;;;;6.65;3.70;;;;;;;-142.57;100.00;61215.63;6219036;23;20340;-83
2022/01/11 02:09:04;;;;;;;7.15;3.63;;;;;;;-142.57;100.00;61215.63;6192348;23;20055;-81
2022/01/11 02:11:31;;;;;;;6.97;4.07;;;;;;;-142.57;100.00;61215.63;6218641;23;20066;-82
2022/01/11 02:13:58;;;;;;;10.48;4.40;;;;;;;-142.57;100.00;61215.63;6191930;23;20104;-84
2022/01/11 02:16:24;;;;;;;7.25;3.78;;;;;;;-142.57;100.00;61215.63;6190343;23;20036;-82
2022/01/11 02:18:54;;;;;;;10.98;4.15;;;;;;;-142.57;100.00;61215.63;6166632;23;20024;-86
2022/01/11 02:21:21;;;;;;;9.35;4.20;;;;;;;-142.57;100.00;61215.63;6190596;23;20012;-82
2022/01/11 02:23:49;;;;;;;9.60;4.00;;;;;;;-142.57;100.00;61215.63;6190521;23;20012;-84
2022/01/11 02:26:15;;;;;;;9.10;4.43;;;;;;;-142.57;100.00;61215.63;6192319;23;20455;-86
2022/01/11 02:28:43;;;;;;;7.63;4.20;;;;;;;-142.57;100.00;61215.63;6218387;23;20092;-84
2022/01/11 02:31:14;;;;;;;9.23;4.50;;;;;;;-142.57;100.00;61215.63;6191595;23;20066;-82
2022/01/11 02:33:46;;;;;;;9.10;4.55;;;;;;;-142.57;100.00;61215.63;6191570;23;20020;-86
2022/01/11 02:36:34;;;;;;;8.05;4.15;;;;;;;-142.57;100.00;61215.63;6225328;23;20123;-80
2022/01/11 02:39:20;;;;;;;13.90;4.95;;;;;;;-142.57;100.00;61215.63;6230467;23;20019;-83
2022/01/11 02:41:52;;;;;;;11.43;5.15;;;;;;;-142.57;100.00;61215.63;6205164;23;20016;-82
2022/01/11 02:44:22;;;;;;;10.50;4.80;;;;;;;-142.57;100.00;61215.63;6191572;23;20016;-84
2022/01/11 02:46:48;;;;;;;8.10;4.82;;;;;;;-142.57;100.00;61215.63;6191547;23;20151;-85
2022/01/11 02:49:14;;;;;;;11.98;4.97;;;;;;;-142.57;100.00;61215.63;6204295;23;20044;-80
2022/01/11 02:51:45;;;;;;;10.13;4.82;;;;;;;-142.57;100.00;61215.63;6198739;23;20015;-79
2022/01/11 02:54:11;;;;;;;9.45;5.35;;;;;;;-142.57;100.00;61215.63;6190145;23;20015;-82
2022/01/11 02:56:39;;;;;;;12.07;5.60;;;;;;;-142.57;100.00;61215.63;6190184;23;20011;-82
2022/01/11 02:59:05;;;;;;;14.07;6.07;;;;;;;-142.57;100.00;61215.63;6217012;23;20012;-80
2022/01/11 03:01:30;;;;;;;10.98;6.00;;;;;;;-142.57;100.00;61215.63;6216854;23;20011;-84
2022/01/11 03:03:58;;;;;;;10.63;5.85;;;;;;;-142.57;100.00;61215.63;6217040;23;20124;-83
2022/01/11 03:06:24;;;;;;;11.82;6.15;;;;;;;-142.57;100.00;61215.63;6217191;23;20015;-85
2022/01/11 03:08:49;;;;;;;11.65;6.50;;;;;;;-142.57;100.00;61215.63;6190108;23;20013;-84
2022/01/11 03:11:19;;;;;;;13.00;6.40;;;;;;;-142.57;100.00;61215.63;6166449;23;20077;-82
2022/01/11 03:13:48;;;;;;;12.93;6.78;;;;;;;-142.57;100.00;61215.63;6194785;23;20044;-83
2022/01/11 03:16:18;;;;;;;12.77;6.65;;;;;;;-142.57;100.00;61215.63;6190875;23;20009;-83
2022/01/11 03:18:45;;;;;;;13.55;7.43;;;;;;;-142.57;100.00;61215.63;6189783;23;20032;-82
2022/01/11 03:21:11;;;;;;;18.60;8.40;;;;;;;-142.57;100.00;61215.63;6190017;23;20016;-81
2022/01/11 03:23:39;;;;;;;15.77;7.80;;;;;;;-142.57;100.00;61215.63;6190505;23;20012;-81
2022/01/11 03:26:05;;;;;;;18.48;8.73;;;;;;;-142.57;100.00;61215.63;6191128;23;20078;-83
2022/01/11 03:28:33;;;;;;;17.40;8.75;;;;;;;-142.57;100.00;61215.63;6189954;23;20016;-80
2022/01/11 03:31:00;;;;;;;18.25;8.88;;;;;;;-142.57;100.00;61215.63;6189836;23;20020;-81
2022/01/11 03:33:30;;;;;;;17.60;8.55;;;;;;;-142.57;100.00;61215.63;6189980;23;20095;-83
2022/01/11 03:35:56;;;;;;;17.25;8.68;;;;;;;-142.57;100.00;61215.63;6191298;23;20032;-84
2022/01/11 03:38:22;;;;;;;22.95;9.43;;;;;;;-142.57;100.00;61215.63;6190511;23;20012;-83
2022/01/11 03:40:54;;;;;;;18.80;8.95;;;;;;;-142.57;100.00;61215.63;6189760;23;20028;-83
2022/01/11 03:43:22;;;;;;;18.05;8.25;;;;;;;-142.57;100.00;61215.63;6216794;23;20012;-83
2022/01/11 03:45:49;;;;;;;19.08;9.45;;;;;;;-142.57;100.00;61215.63;6190222;23;20078;-83
2022/01/11 03:48:17;;;;;;;20.35;9.60;;;;;;;-142.57;100.00;61215.63;6190263;23;20579;-84
2022/01/11 03:50:49;;;;;;;28.48;11.45;;;;;;;-142.57;100.00;61215.63;6190074;23;20040;-83
2022/01/11 03:53:17;;;;;;;;;;;;;;;-142.57;100.00;61215.63;6165849;23;20099;-82
2022/01/11 03:58:21;;;;;;;36.33;12.98;;;;;;;-142.57;100.00;61215.63;6194222;23;20020;-82
2022/01/11 04:00:49;;;;;;;38.25;13.80;;;;;;;-142.57;100.00;61215.63;6190316;23;20012;-80
2022/01/11 04:03:15;;;;;;;37.17;13.50;;;;;;;-142.57;100.00;61215.63;6191044;23;20013;-81
2022/01/11 04:05:43;;;;;;;35.75;13.68;;;;;;;-142.57;100.00;61215.63;6165688;23;20012;-80
2022/01/11 04:08:10;;;;;;;23.45;10.82;;;;;;;-142.57;100.00;61215.63;6189816;23;20495;-81
2022/01/11 04:10:36;;;;;;;21.90;9.88;;;;;;;-142.57;100.00;61215.63;6189986;23;20012;-82
2022/01/11 04:13:02;;;;;;;21.42;10.20;;;;;;;-142.57;100.00;61215.63;6217126;23;20019;-80
2022/01/11 04:15:27;;;;;;;17.73;8.50;;;;;;;-142.57;100.00;61215.63;6210007;23;20012;-81
2022/01/11 04:17:53;;;;;;;22.02;8.70;;;;;;;-142.57;100.00;61215.63;6197632;23;20044;-83
2022/01/11 04:20:22;;;;;;;15.80;8.13;;;;;;;-142.57;100.00;61215.63;6189480;23;20043;-83
2022/01/11 04:22:48;;;;;;;19.15;8.93;;;;;;;-142.57;100.00;61215.63;6191014;23;20013;-81
2022/01/11 04:25:15;;;;;;;17.40;8.73;;;;;;;-142.57;100.00;61215.63;6199182;23;20012;-83
2022/01/11 04:27:45;;;;;;;20.95;9.88;;;;;;;-142.57;100.00;61215.63;6190676;23;20008;-83
2022/01/11 04:30:11;;;;;;;21.35;10.10;;;;;;;-142.57;100.00;61215.63;6189587;23;20459;-83
2022/01/11 04:32:37;;;;;;;32.50;13.02;;;;;;;-142.57;100.00;61215.63;6192622;23;20005;-81
2022/01/11 04:35:10;;;;;;;37.42;15.70;;;;;;;-142.57;100.00;61215.63;6191376;23;20091;-82
2022/01/11 04:37:36;;;;;;;34.45;13.23;;;;;;;-142.57;100.00;61215.63;6189248;23;20336;-80
2022/01/11 04:40:02;;;;;;;24.48;11.00;;;;;;;-142.57;100.00;61215.63;6189182;23;20065;-81
2022/01/11 04:42:32;;;;;;;23.50;10.55;;;;;;;-142.57;100.00;61215.63;6189325;23;20348;-80
2022/01/11 04:44:58;;;;;;;23.73;10.90;;;;;;;-142.57;100.00;61215.63;6216301;23;20020;-84
2022/01/11 04:47:23;;;;;;;24.52;10.27;;;;;;;-142.57;100.00;61215.63;6216216;23;20345;-83
2022/01/11 04:49:49;;;;;;;22.60;10.75;;;;;;;-142.57;100.00;61215.63;6215982;23;20017;-80
2022/01/11 04:52:14;;;;;;;21.95;10.00;;;;;;;-142.57;100.00;61215.63;6215855;23;20009;-82
2022/01/11 04:54:40;;;;;;;22.58;10.68;;;;;;;-142.57;100.00;61215.63;6190259;23;20024;-83
2022/01/11 04:57:07;;;;;;;24.90;10.63;;;;;;;-142.57;100.00;61215.63;6189289;23;20036;-84
2022/01/11 04:59:32;;;;;;;21.90;10.75;;;;;;;-142.57;100.00;61215.63;6189384;23;20422;-82
2022/01/11 05:01:58;;;;;;;22.40;10.77;;;;;;;-142.57;100.00;61215.63;6215777;23;20092;-82
2022/01/11 05:04:24;;;;;;;20.92;9.60;;;;;;;-142.57;100.00;61215.63;6189116;23;20448;-81
2022/01/11 05:06:51;;;;;;;22.63;10.07;;;;;;;-142.57;100.00;61215.63;6218121;23;20028;-81
2022/01/11 05:09:17;;;;;;;18.23;9.00;;;;;;;-142.57;100.00;61215.63;6218007;23;20016;-82
2022/01/11 05:11:43;;;;;;;18.30;9.55;;;;;;;-142.57;100.00;61215.63;6191262;23;20016;-79
2022/01/11 05:14:09;;;;;;;19.92;10.38;;;;;;;-142.57;100.00;61215.63;6191211;23;20012;-82
2022/01/11 05:16:47;;;;;;;22.42;11.95;;;;;;;-142.57;100.00;61215.63;6190000;23;20340;-85
2022/01/11 05:19:13;;;;;;;20.63;11.65;;;;;;;-142.57;100.00;61215.63;6188982;23;20095;-81
2022/01/11 05:21:40;;;;;;;24.45;12.88;;;;;;;-142.57;100.00;61215.63;6189417;23;20385;-83
2022/01/11 05:24:07;;;;;;;28.52;14.18;;;;;;;-142.57;100.00;61215.63;6189366;23;20009;-82
2022/01/11 05:26:34;;;;;;;26.75;13.82;;;;;;;-142.57;100.00;61215.63;6188874;23;20008;-81
2022/01/11 05:28:59;;;;;;;27.75;14.10;;;;;;;-142.57;100.00;61215.63;6216520;23;20019;-83
2022/01/11 05:31:25;;;;;;;26.02;13.40;;;;;;;-142.57;100.00;61215.63;6195360;23;20087;-84
2022/01/11 05:33:51;;;;;;;26.15;13.32;;;;;;;-142.57;100.00;61215.63;6219905;23;20340;-80
2022/01/11 05:36:16;;;;;;;27.88;13.88;;;;;;;-142.57;100.00;61215.63;6219282;23;20066;-82
2022/01/11 05:38:43;;;;;;;24.75;13.88;;;;;;;-142.57;100.00;61215.63;6193508;23;20073;-79
2022/01/11 05:41:10;;;;;;;26.13;14.27;;;;;;;-142.57;100.00;61215.63;6200992;23;20036;-84
2022/01/11 05:43:37;;;;;;;27.13;14.05;;;;;;;-142.57;100.00;61215.63;6189320;23;20013;-81
2022/01/11 05:46:07;;;;;;;24.92;14.27;;;;;;;-142.57;100.00;61215.63;6189202;23;20101;-82
2022/01/11 05:48:35;;;;;;;27.50;15.00;;;;;;;-142.57;100.00;61215.63;6188790;23;20020;-80
2022/01/11 05:51:01;;;;;;;29.40;14.60;;;;;;;-142.57;100.00;61215.63;6189829;23;20019;-81
2022/01/11 05:53:28;;;;;;;31.10;14.65;;;;;;;-142.57;100.00;61215.63;6189638;23;20063;-81
2022/01/11 05:55:54;;;;;;;27.25;14.40;;;;;;;-142.57;100.00;61215.63;6190430;23;20432;-81
2022/01/11 05:58:20;;;;;;;27.67;14.07;;;;;;;-142.57;100.00;61215.63;6215335;23;20012;-81
2022/01/11 06:00:46;;;;;;;27.73;14.48;;;;;;;-142.57;100.00;61215.63;6188750;23;20016;-84
2022/01/11 06:03:14;;;;;;;26.88;13.90;;;;;;;-142.57;100.00;61215.63;6189859;23;20017;-84
2022/01/11 06:05:45;;;;;;;25.85;13.77;;;;;;;-142.57;100.00;61215.63;6170015;23;20015;-85
2022/01/11 06:08:16;;;;;;;25.20;13.88;;;;;;;-142.57;100.00;61215.63;6190617;23;20016;-84
2022/01/11 06:10:44;;;;;;;23.98;13.77;;;;;;;-142.57;100.00;61215.63;6191651;23;20054;-86
2022/01/11 06:13:11;;;;;;;27.27;14.27;;;;;;;-142.57;100.00;61215.63;6191776;23;20008;-85
2022/01/11 06:15:37;;;;;;;27.55;14.60;;;;;;;-142.57;100.00;61215.63;6191207;23;20016;-85
2022/01/11 06:18:05;;;;;;;28.45;13.13;;;;;;;-142.57;100.00;61215.63;6190476;23;20017;-85
2022/01/11 06:20:37;;;;;;;30.48;14.05;;;;;;;-142.57;100.00;61215.63;6190514;23;20004;-82
2022/01/11 06:23:02;;;;;;;28.60;14.30;;;;;;;-142.57;100.00;61215.63;6190246;23;20330;-79
2022/01/11 06:25:28;;;;;;;27.65;13.27;;;;;;;-142.57;100.00;61215.63;6190705;23;20013;-84
2022/01/11 06:27:54;;;;;;;31.83;14.25;;;;;;;-142.57;100.00;61215.63;6191409;23;20020;-84
2022/01/11 06:30:20;;;;;;;27.08;13.43;;;;;;;-142.57;100.00;61215.63;6190594;23;20083;-83
2022/01/11 06:32:46;;;;;;;27.73;13.57;;;;;;;-142.57;100.00;61215.63;6223064;23;20013;-82
2022/01/11 06:35:15;;;;;;;29.33;13.38;;;;;;;-142.57;100.00;61215.63;6192111;23;20355;-82
2022/01/11 06:37:44;;;;;;;25.15;12.52;;;;;;;-142.57;100.00;61215.63;6191981;23;20523;-83
2022/01/11 06:40:13;;;;;;;25.05;12.60;;;;;;;-142.57;100.00;61215.63;6191849;23;20013;-81
2022/01/11 06:42:39;;;;;;;26.63;13.00;;;;;;;-142.57;100.00;61215.63;6195534;23;20035;-79
2022/01/11 06:45:05;;;;;;;25.52;13.05;;;;;;;-142.57;100.00;61215.63;6190469;23;20016;-81
2022/01/11 06:47:32;;;;;;;27.35;12.43;;;;;;;-142.57;100.00;61215.63;6190332;23;20092;-81
2022/01/11 06:49:57;;;;;;;20.85;11.57;;;;;;;-142.57;100.00;61215.63;6189837;23;20013;-82
2022/01/11 06:52:24;;;;;;;25.13;11.68;;;;;;;-142.57;100.00;61215.63;6190593;23;20051;-83
2022/01/11 06:54:50;;;;;;;24.95;11.85;;;;;;;-142.57;100.00;61215.63;6190096;23;20012;-82
2022/01/11 06:57:16;;;;;;;23.00;12.45;;;;;;;-142.57;100.00;61215.63;6190292;23;20009;-81
2022/01/11 06:59:43;;;;;;;22.13;11.95;;;;;;;-142.57;100.00;61215.63;6190752;23;20447;-83
2022/01/11 07:02:11;;;;;;;26.48;12.32;;;;;;;-142.57;100.00;61215.63;6192143;23;20008;-84
2022/01/11 07:04:50;;;;;;;24.40;11.48;;;;;;;-142.57;100.00;61215.63;6207728;23;20008;-79
2022/01/11 07:07:16;;;;;;;32.25;13.45;;;;;;;-142.57;100.00;61215.63;6196141;23;20012;-82
2022/01/11 07:09:42;;;;;;;24.70;13.02;;;;;;;-142.57;100.00;61215.63;6189939;23;20017;-82
2022/01/11 07:12:09;;;;;;;26.50;13.52;;;;;;;-142.57;100.00;61215.63;6195721;23;20009;-84
2022/01/11 07:14:37;;;;;;;28.17;13.40;;;;;;;-142.57;100.00;61215.63;6191365;23;20055;-82
2022/01/11 07:17:03;;;;;;;27.92;12.18;;;;;;;-142.57;100.00;61215.63;6190606;23;20012;-85
2022/01/11 07:19:29;;;;;;;26.80;13.43;;;;;;;-142.57;100.00;61215.63;6190197;23;20067;-84
2022/01/11 07:21:59;;;;;;;24.67;13.40;;;;;;;-142.57;100.00;61215.63;6166346;23;20107;-84
2022/01/11 07:24:27;;;;;;;26.95;13.15;;;;;;;-142.57;100.00;61215.63;6190580;23;20428;-85
2022/01/11 07:26:53;;;;;;;23.95;12.40;;;;;;;-142.57;100.00;61215.63;6192692;23;20044;-84
2022/01/11 07:29:19;;;;;;;27.50;12.00;;;;;;;-142.57;100.00;61215.63;6222637;23;20012;-81
2022/01/11 07:31:45;;;;;;;29.88;12.60;;;;;;;-142.57;100.00;61215.63;6200675;23;20016;-83
2022/01/11 07:34:13;;;;;;;27.27;12.77;;;;;;;-142.57;100.00;61215.63;6203745;23;20009;-84
2022/01/11 07:36:40;;;;;;;31.70;12.55;;;;;;;-142.57;100.00;61215.63;6203582;23;20020;-82
2022/01/11 07:39:06;;;;;;;24.40;12.73;;;;;;;-142.57;100.00;61215.63;6196775;23;20012;-79
2022/01/11 07:41:33;;;;;;;30.55;13.55;;;;;;;-142.57;100.00;61215.63;6190758;23;20020;-81
2022/01/11 07:44:13;;;;;;;40.53;15.48;;;;;;;-142.57;100.00;61215.63;6160388;23;20013;-82
2022/01/11 07:46:41;;;;;;;30.45;14.52;;;;;;;-142.57;100.00;61215.63;6161117;23;20013;-85
2022/01/11 07:49:11;;;;;;;32.15;14.50;;;;;;;-142.57;100.00;61215.63;6160148;23;20024;-84
2022/01/11 07:51:36;;;;;;;27.95;13.55;;;;;;;-142.57;100.00;61215.63;6160569;23;20016;-81
2022/01/11 07:54:06;;;;;;;26.00;14.15;;;;;;;-142.57;100.00;61215.63;6159431;23;20013;-82
2022/01/11 07:56:33;;;;;;;26.88;14.23;;;;;;;-142.57;100.00;61215.63;6157127;23;20024;-79
2022/01/11 07:58:58;;;;;;;30.17;14.02;;;;;;;-142.57;100.00;61215.63;6165271;23;20013;-79
2022/01/11 08:01:29;;;;;;;27.92;13.57;;;;;;;-142.57;100.00;61215.63;6157323;23;20119;-80
2022/01/11 08:03:56;;;;;;;33.17;13.15;;;;;;;-142.57;100.00;61215.63;6159336;23;20028;-82
2022/01/11 08:06:26;;;;;;;26.33;13.13;;;;;;;-142.57;100.00;61215.63;6137427;23;20040;-81
2022/01/11 08:09:00;;;;;;;25.70;12.18;;;;;;;-142.57;100.00;61215.63;6153339;23;20448;-81
2022/01/11 08:11:27;;;;;;;21.95;10.75;;;;;;;-142.57;100.00;61215.63;6146137;23;20021;-79
2022/01/11 08:13:52;;;;;;;17.30;8.98;;;;;;;-142.57;100.00;61215.63;6183658;23;20351;-79
2022/01/11 08:16:18;;;;;;;17.67;9.63;;;;;;;-142.57;100.00;61215.63;6184154;23;20019;-81
2022/01/11 08:18:45;;;;;;;19.55;8.85;;;;;;;-142.57;100.00;61215.63;6158878;23;20475;-81
2022/01/11 08:21:11;;;;;;;19.50;9.50;;;;;;;-142.57;100.00;61215.63;6158739;23;20013;-82
2022/01/11 08:23:40;;;;;;;20.55;9.52;;;;;;;-142.57;100.00;61215.63;6159816;23;20048;-79
2022/01/11 08:26:06;;;;;;;18.10;10.07;;;;;;;-142.57;100.00;61215.63;6164494;23;20044;-80
2022/01/11 08:28:32;;;;;;;22.27;10.88;;;;;;;-142.57;100.00;61215.63;6183787;23;20024;-80
2022/01/11 08:31:02;;;;;;;28.75;11.15;;;;;;;-142.57;100.00;61215.63;6165281;23;20345;-80
2022/01/11 08:33:32;;;;;;;26.42;11.65;;;;;;;-142.57;100.00;61215.63;6158826;23;20048;-79
2022/01/11 08:35:59;;;;;;;27.13;10.93;;;;;;;-142.57;100.00;61215.63;6150726;23;20894;-78
2022/01/11 08:38:26;;;;;;;29.00;11.65;;;;;;;-142.57;100.00;61215.63;6158594;23;20016;-81
2022/01/11 08:40:53;;;;;;;29.05;10.98;;;;;;;-142.57;100.00;61215.63;6134892;23;20103;-81
2022/01/11 08:43:20;;;;;;;24.52;10.13;;;;;;;-142.57;100.00;61215.63;6178950;23;20059;-80
2022/01/11 08:45:45;;;;;;;21.52;10.18;;;;;;;-142.57;100.00;61215.63;6188221;23;20104;-81
2022/01/11 08:48:14;;;;;;;18.02;8.55;;;;;;;-142.57;100.00;61215.63;6191587;23;20008;-80
2022/01/11 08:50:53;;;;;;;22.23;9.70;;;;;;;-142.57;100.00;61215.63;6188082;23;20020;-81
2022/01/11 08:53:22;;;;;;;18.38;9.93;;;;;;;-142.57;100.00;61215.63;6164938;23;20013;-84
2022/01/11 08:55:50;;;;;;;17.80;8.95;;;;;;;-142.57;100.00;61215.63;6190391;23;20063;-81
2022/01/11 08:58:19;;;;;;;19.73;9.65;;;;;;;-142.57;100.00;61215.63;6161909;23;20059;-80
2022/01/11 09:00:46;;;;;;;20.20;9.93;;;;;;;-142.57;100.00;61215.63;6190028;23;20013;-81
2022/01/11 09:03:12;;;;;;;26.55;11.27;;;;;;;-142.57;100.00;61215.63;6188374;23;20012;-80
2022/01/11 09:05:43;;;;;;;21.08;11.48;;;;;;;-142.57;100.00;61215.63;6188459;23;20352;-81
2022/01/11 09:08:10;;;;;;;28.40;12.80;;;;;;;-142.57;100.00;61215.63;6188797;23;20013;-80
2022/01/11 09:10:36;;;;;;;30.30;12.25;;;;;;;-142.57;100.00;61215.63;6188283;23;20007;-81
2022/01/11 09:13:02;;;;;;;28.23;13.90;;;;;;;-142.57;100.00;61215.63;6189796;23;20416;-80
2022/01/11 09:15:28;;;;;;;26.20;13.02;;;;;;;-142.57;100.00;61215.63;6189729;23;20420;-81
2022/01/11 09:17:55;;;;;;;23.27;12.80;;;;;;;-142.57;100.00;61215.63;6164291;23;20012;-79
2022/01/11 09:20:21;;;;;;;23.42;13.52;;;;;;;-142.57;100.00;61215.63;6214954;23;20009;-82
2022/01/11 09:22:48;;;;;;;28.50;13.18;;;;;;;-142.57;100.00;61215.63;6163732;23;20444;-83
2022/01/11 09:25:15;;;;;;;27.30;12.45;;;;;;;-142.57;100.00;61215.63;6215141;23;20058;-83
2022/01/11 09:27:49;;;;;;;23.95;13.18;;;;;;;-142.57;100.00;61215.63;6188770;23;20475;-83
2022/01/11 09:30:16;;;;;;;24.65;12.80;;;;;;;-142.57;100.00;61215.63;6189033;23;20332;-81
2022/01/11 09:32:43;;;;;;;31.05;13.88;;;;;;;-142.57;100.00;61215.63;6164398;23;20020;-81
2022/01/11 09:35:12;;;;;;;25.92;13.38;;;;;;;-142.57;100.00;61215.63;6188337;23;20005;-82
2022/01/11 09:37:38;;;;;;;25.10;12.98;;;;;;;-142.57;100.00;61215.63;6186102;23;20037;-84
2022/01/11 09:40:06;;;;;;;27.08;14.10;;;;;;;-142.57;100.00;61215.63;6215563;23;20011;-84
2022/01/11 09:42:33;;;;;;;31.17;14.07;;;;;;;-142.57;100.00;61215.63;6189605;23;20008;-82
2022/01/11 09:45:07;;;;;;;27.27;14.65;;;;;;;-142.57;100.00;61215.63;6190271;23;20478;-84
2022/01/11 09:47:40;;;;;;;27.15;13.57;;;;;;;-142.57;100.00;61215.63;6190063;23;20107;-82
2022/01/11 09:50:10;;;;;;;26.65;12.95;;;;;;;-142.57;100.00;61215.63;6200730;23;20013;-79
2022/01/11 09:52:38;;;;;;;28.15;13.35;;;;;;;-142.57;100.00;61215.63;6201611;23;20004;-81
2022/01/11 09:55:05;;;;;;;23.10;12.52;;;;;;;-142.57;100.00;61215.63;6190286;23;20009;-81
2022/01/11 09:57:31;;;;;;;22.30;12.23;;;;;;;-142.57;100.00;61215.63;6187322;23;20009;-81
2022/01/11 10:00:14;;;;;;;26.52;13.27;;;;;;;-142.57;100.00;61215.63;6189156;23;20013;-82
2022/01/11 10:02:46;;;;;;;27.35;14.18;;;;;;;-142.57;100.00;61215.63;6216417;23;20369;-81
2022/01/11 10:05:28;;;;;;;28.40;13.20;;;;;;;-142.57;100.00;61215.63;6192410;23;20459;-84
2022/01/11 10:07:55;;;;;;;35.40;13.20;;;;;;;-142.57;100.00;61215.63;6189433;23;20024;-83
2022/01/11 10:10:24;;;;;;;36.85;14.25;;;;;;;-142.57;100.00;61215.63;6189903;23;20000;-83
2022/01/11 10:13:04;;;;;;;26.67;14.10;;;;;;;-142.57;100.00;61215.63;6189742;23;20016;-86
2022/01/11 10:15:36;;;;;;;25.42;12.45;;;;;;;-142.57;100.00;61215.63;6189427;23;20023;-84
2022/01/11 10:18:08;;;;;;;25.88;12.65;;;;;;;-142.57;100.00;61215.63;6192227;23;20020;-82
2022/01/11 10:20:36;;;;;;;25.48;12.02;;;;;;;-142.57;100.00;61215.63;6191608;23;20019;-85
2022/01/11 10:23:13;;;;;;;22.30;11.45;;;;;;;-142.57;100.00;61215.63;6216227;23;20416;-80
2022/01/11 10:25:49;;;;;;;22.02;11.73;;;;;;;-142.57;100.00;61215.63;6188939;23;20005;-83
2022/01/11 10:28:16;;;;;;;25.35;11.90;;;;;;;-142.57;100.00;61215.63;6216685;23;20017;-81
2022/01/11 10:30:47;;;;;;;23.90;10.77;;;;;;;-142.57;100.00;61215.63;6216816;23;20004;-81
2022/01/11 10:33:15;;;;;;;24.88;10.63;;;;;;;-142.57;100.00;61215.63;6165321;23;20071;-82
2022/01/11 10:35:45;;;;;;;44.28;11.50;;;;;;;-142.57;100.00;61215.63;6188730;23;20015;-79
2022/01/11 10:38:29;;;;;;;27.00;10.48;;;;;;;-142.57;100.00;61215.63;6188930;23;20005;-82
2022/01/11 10:40:59;;;;;;;18.55;10.50;;;;;;;-142.57;100.00;61215.63;6188521;23;20019;-83
2022/01/11 10:43:25;;;;;;;25.75;11.45;;;;;;;-142.57;100.00;61215.63;6190485;23;20340;-83
2022/01/11 10:45:55;;;;;;;20.88;10.07;;;;;;;-142.57;100.00;61215.63;6187839;23;20024;-81
2022/01/11 10:48:24;;;;;;;25.98;10.75;;;;;;;-142.57;100.00;61215.63;6189709;23;20020;-83
2022/01/11 10:50:59;;;;;;;21.25;10.55;;;;;;;-142.57;100.00;61215.63;6188876;23;20035;-85
2022/01/11 10:53:32;;;;;;;27.65;11.15;;;;;;;-142.57;100.00;61215.63;6189250;23;20012;-81
2022/01/11 10:56:00;;;;;;;22.83;9.02;;;;;;;-142.57;100.00;61215.63;6188976;23;20074;-83
2022/01/11 10:58:33;;;;;;;21.55;10.40;;;;;;;-142.57;100.00;61215.63;6188325;23;20228;-79
2022/01/11 11:00:59;;;;;;;22.33;10.25;;;;;;;-142.57;100.00;61215.63;6189761;23;20035;-82
2022/01/11 11:03:31;;;;;;;19.45;9.65;;;;;;;-142.57;100.00;61215.63;6189646;23;20016;-82
2022/01/11 11:06:07;;;;;;;24.38;10.48;;;;;;;-142.57;100.00;61215.63;6214679;23;20639;-82
2022/01/11 11:08:39;;;;;;;13.52;7.95;;;;;;;-142.57;100.00;61215.63;6190077;23;20013;-81
2022/01/11 11:11:40;;;;;;;26.48;9.98;;;;;;;-142.57;100.00;61215.63;6189299;23;20025;-81